Flight Track Log - Related Links

Times and Time Zones

All times are in EDT time to prevent confusion due to time zone crossing. See the RPA3347 flight status page for this flight to view local times or setup timezone preferences in your user account.

Time Position Orientation Groundspeed Altitude Reporting Facility
EDT Latitude Longitude Course Direction KTS MPH feet Rate Location/Type
Sat 05:25:50 PM 42.7653 -73.8061 169° South 160 184 1,400  Level Boston Center
Sat 05:27:03 PM 42.8147 -73.8467 329° Northwest 208 239 3,700 2,346 Climbing Boston Center
Sat 05:28:00 PM 42.5070 -74.0649 171° South  Level Estimated
Sat 05:28:03 PM 42.8661 -73.9103 318° Northwest 250 288 6,600  Level Boston Center
Sat 05:29:00 PM 42.4261 -74.1521 170° South  Level Estimated
Sat 05:29:03 PM 42.9214 -73.9797 317° Northwest 268 308 10,700  Level Boston Center
Sat 05:30:00 PM 42.3699 -74.0348 123° Southeast  Level FlightAware Approximate
Sat 05:30:03 PM 42.9222 -74.0733 271° West 250 288 13,000  Level Boston Center
Sat 05:31:00 PM 42.2898 -74.1230 169° South  Level Estimated
Sat 05:31:03 PM 42.8481 -74.1561 219° Southwest 270 311 16,300  Level Boston Center
Sat 05:32:03 PM 42.7717 -74.2389 219° Southwest 326 375 18,800 2,450 Climbing Boston Center
Sat 05:33:03 PM 42.6656 -74.2331 178° South 351 404 21,200 2,350 Climbing Boston Center
Sat 05:34:03 PM 42.5606 -74.1539 151° Southeast 365 420 23,500 2,200 Climbing Boston Center
Sat 05:35:03 PM 42.4511 -74.0778 153° Southeast 402 463 25,600 1,800 Climbing Boston Center
Sat 05:36:03 PM 42.3333 -73.9961 153° Southeast 439 505 27,100 1,600 Climbing Boston Center
Sat 05:37:03 PM 42.2178 -73.9147 152° Southeast 457 526 28,800 1,400 Climbing Boston Center
Sat 05:38:03 PM 42.0894 -73.8556 161° South 482 555 29,900 1,200 Climbing Boston Center
Sat 05:39:03 PM 41.9639 -73.8919 192° South 455 524 31,200 1,006 Climbing Boston Center
Sat 05:41:02 PM 41.7256 -73.9950 198° South 462 532 32,900 1,133 Climbing New York Center
Sat 05:42:03 PM 41.6056 -74.0503 199° South 497 572 34,600 1,525 Climbing New York Center
Sat 05:43:04 PM 41.4578 -74.1150 198° South 487 560 36,000 712 Climbing New York Center
Sat 05:44:01 PM 41.3292 -74.1722 198° South 487 560 36,000  Level New York Center
Sat 05:45:01 PM 41.2192 -74.2356 203° Southwest 487 560 36,000  Level New York Center
Sat 05:46:02 PM 41.1103 -74.3236 211° Southwest 482 555 36,000  Level New York Center
Sat 05:47:03 PM 40.9992 -74.4167 212° Southwest 476 548 36,000  Level New York Center
Sat 05:48:04 PM 40.8903 -74.5014 210° Southwest 471 542 36,000  Level New York Center
Sat 05:49:02 PM 40.7811 -74.5858 210° Southwest 461 531 36,000  Level New York Center
Sat 05:50:02 PM 40.6722 -74.6728 211° Southwest 461 531 36,000  Level New York Center
Sat 05:51:04 PM 40.5689 -74.7653 214° Southwest 461 531 36,000  Level New York Center
Sat 05:52:02 PM 40.4881 -74.8806 227° Southwest 449 517 36,000  Level New York Center
Sat 05:53:02 PM 40.4069 -74.9931 227° Southwest 434 499 36,000  Level New York Center
Sat 05:54:03 PM 40.3278 -75.1081 228° Southwest 434 499 36,000 -50 Level New York Center
Sat 05:55:01 PM 40.2464 -75.2197 226° Southwest 434 499 35,900 -763 Descending New York Center
Sat 05:56:01 PM 40.1650 -75.3342 227° Southwest 429 494 34,500 -950 Descending New York Center
Sat 05:57:01 PM 40.0833 -75.4508 228° Southwest 429 494 34,000 -246 Descending New York Center
Sat 05:58:03 PM 40.0036 -75.5619 227° Southwest 429 494 34,000  Level New York Center
Sat 05:59:03 PM 39.9242 -75.6731 227° Southwest 429 494 34,000  Level New York Center
Sat 06:00:03 PM 39.8461 -75.7919 229° Southwest 429 494 34,000  Level New York Center
Sat 06:01:01 PM 39.7722 -75.9108 231° Southwest 439 505 34,000  Level New York Center
Sat 06:02:48 PM 39.6353 -76.1250 230° Southwest 450 518 34,000  Level Washington Center
Sat 06:03:48 PM 39.5597 -76.2428 230° Southwest 443 510 34,000  Level Washington Center
Sat 06:04:48 PM 39.4842 -76.3606 230° Southwest 438 504 34,000  Level Washington Center
Sat 06:05:49 PM 39.4125 -76.4753 231° Southwest 433 498 34,000  Level Washington Center
Sat 06:06:50 PM 39.3219 -76.6031 228° Southwest 433 498 34,000  Level Washington Center
Sat 06:07:49 PM 39.2458 -76.7253 231° Southwest 433 498 34,000  Level Washington Center
Sat 06:08:48 PM 39.1717 -76.8444 231° Southwest 433 498 34,000  Level Washington Center
Sat 06:09:49 PM 39.0931 -76.9636 230° Southwest 433 498 34,000  Level Washington Center
Sat 06:10:49 PM 39.0106 -77.0769 227° Southwest 433 498 34,000  Level Washington Center
Sat 06:11:50 PM 38.9197 -77.1764 220° Southwest 433 498 34,000  Level Washington Center
Sat 06:12:50 PM 38.8222 -77.2808 220° Southwest 439 505 34,000  Level Washington Center
Sat 06:13:49 PM 38.7292 -77.3825 220° Southwest 446 513 34,000  Level Washington Center
Sat 06:14:50 PM 38.6358 -77.4919 223° Southwest 451 519 34,000  Level Washington Center
Sat 06:15:50 PM 38.5444 -77.5931 221° Southwest 451 519 34,000  Level Washington Center
Sat 06:16:49 PM 38.4508 -77.6994 222° Southwest 451 519 34,000  Level Washington Center
Sat 06:17:49 PM 38.3572 -77.8053 222° Southwest 451 519 34,000  Level Washington Center
Sat 06:18:49 PM 38.2592 -77.9161 222° Southwest 462 532 34,000  Level Washington Center
Sat 06:19:50 PM 38.1631 -78.0267 222° Southwest 467 537 34,000  Level Washington Center
Sat 06:20:48 PM 38.0631 -78.1342 220° Southwest 467 537 34,000  Level Washington Center
Sat 06:21:48 PM 37.9794 -78.2289 222° Southwest 467 537 34,000  Level Washington Center
Sat 06:22:49 PM 37.8833 -78.3386 222° Southwest 467 537 34,000  Level Washington Center
Sat 06:23:50 PM 37.7742 -78.4556 220° Southwest 467 537 34,000  Level Washington Center
Sat 06:24:48 PM 37.6756 -78.5619 221° Southwest 467 537 34,000  Level Washington Center
Sat 06:25:48 PM 37.5769 -78.6681 220° Southwest 467 537 34,000  Level Washington Center
Sat 06:26:48 PM 37.4783 -78.7742 221° Southwest 467 537 34,000  Level Washington Center
Sat 06:27:49 PM 37.3900 -78.8697 221° Southwest 467 537 34,000  Level Washington Center
Sat 06:28:49 PM 37.2933 -78.9728 220° Southwest 467 537 34,000  Level Washington Center
Sat 06:29:50 PM 37.1964 -79.0778 221° Southwest 467 537 34,000  Level Washington Center
Sat 06:30:49 PM 37.0975 -79.1853 221° Southwest 467 537 34,000  Level Washington Center
Sat 06:31:49 PM 36.9983 -79.2872 219° Southwest 467 537 34,000  Level Washington Center
Sat 06:32:49 PM 36.8903 -79.4017 220° Southwest 467 537 34,000 -198 Level Washington Center
Sat 06:33:50 PM 36.7953 -79.5058 221° Southwest 467 537 33,600 -992 Descending Washington Center
Sat 06:34:50 PM 36.6958 -79.6097 220° Southwest 467 537 32,000 -2,286 Descending Washington Center
Sat 06:37:20 PM 36.4522 -79.8625 220° Southwest 452 520 25,600 -2,514 Descending Atlanta Center
Sat 06:38:20 PM 36.3636 -79.9547 220° Southwest 433 498 23,200 -1,800 Descending Atlanta Center
Sat 06:39:20 PM 36.2808 -80.0364 219° Southwest 426 490 22,000 -1,200 Descending Atlanta Center
Sat 06:40:20 PM 36.1833 -80.1183 214° Southwest 426 490 20,800 -1,500 Descending Atlanta Center
Sat 06:41:20 PM 36.0939 -80.1919 214° Southwest 413 475 19,000 -2,050 Descending Atlanta Center
Sat 06:42:20 PM 35.9983 -80.2736 215° Southwest 395 455 16,700 -2,024 Descending Atlanta Center
Sat 06:42:43 PM 35.9681 -80.3058 221° Southwest 368 423 16,200 -1,625 Descending Atlanta Center
Sat 06:43:08 PM 35.9317 -80.3383 216° Southwest 357 411 15,400 -1,674 Descending Atlanta Center
Sat 06:44:09 PM 35.8522 -80.4033 214° Southwest 340 391 13,800 -1,672 Descending Atlanta Center
Sat 06:45:10 PM 35.7831 -80.4628 215° Southwest 299 344 12,000 -1,420 Descending Atlanta Center
Sat 06:46:20 PM 35.7072 -80.5147 209° Southwest 309 356 10,700 -1,477 Descending Atlanta Center
Sat 06:47:20 PM 35.6353 -80.5536 204° Southwest 294 338 8,800 -2,124 Descending Atlanta Center
Sat 06:48:13 PM 35.5633 -80.5922 204° Southwest 278 320 6,700 -1,474 Descending Atlanta Center
Sat 06:49:14 PM 35.4914 -80.6286 202° Southwest 273 314 6,000 -378 Descending Atlanta Center
Sat 06:50:20 PM 35.4236 -80.6619 202° Southwest 283 326 5,900 -732 Descending Atlanta Center
Sat 06:51:17 PM 35.3731 -80.7250 225° Southwest 263 303 4,500 -1,474 Descending Atlanta Center

Login

Don't have an account? Register now (free) for customized features, flight alerts, and more!